sensor_id;sensor_type;location;lat;lon;timestamp;temperature;humidity
1297;DHT22;641;48.492;9.184;2023-05-07T00:02:25;15.00;99.90
1297;DHT22;641;48.492;9.184;2023-05-07T00:04:51;15.20;99.90
1297;DHT22;641;48.492;9.184;2023-05-07T00:07:17;15.00;99.90
1297;DHT22;641;48.492;9.184;2023-05-07T00:09:43;15.10;99.90
1297;DHT22;641;48.492;9.184;2023-05-07T00:12:09;15.10;99.90
1297;DHT22;641;48.492;9.184;2023-05-07T00:14:34;15.10;99.90
1297;DHT22;641;48.492;9.184;2023-05-07T00:17:00;14.60;99.90
1297;DHT22;641;48.492;9.184;2023-05-07T00:19:25;14.70;99.90
1297;DHT22;641;48.492;9.184;2023-05-07T00:21:51;14.40;99.90
1297;DHT22;641;48.492;9.184;2023-05-07T00:24:19;14.60;99.90
1297;DHT22;641;48.492;9.184;2023-05-07T00:26:44;14.20;99.90
1297;DHT22;641;48.492;9.184;2023-05-07T00:29:10;14.40;99.90
1297;DHT22;641;48.492;9.184;2023-05-07T00:31:36;14.10;99.90
1297;DHT22;641;48.492;9.184;2023-05-07T00:34:02;14.20;99.90
1297;DHT22;641;48.492;9.184;2023-05-07T00:36:27;14.20;99.90
1297;DHT22;641;48.492;9.184;2023-05-07T00:38:54;14.40;99.90
1297;DHT22;641;48.492;9.184;2023-05-07T00:41:20;14.50;99.90
1297;DHT22;641;48.492;9.184;2023-05-07T00:43:46;14.50;99.90
1297;DHT22;641;48.492;9.184;2023-05-07T00:46:13;14.70;99.90
1297;DHT22;641;48.492;9.184;2023-05-07T00:48:39;15.00;99.90
1297;DHT22;641;48.492;9.184;2023-05-07T00:51:05;14.90;99.90
1297;DHT22;641;48.492;9.184;2023-05-07T00:53:31;14.60;99.90
1297;DHT22;641;48.492;9.184;2023-05-07T00:55:57;14.60;99.90
1297;DHT22;641;48.492;9.184;2023-05-07T00:58:23;14.60;99.90
1297;DHT22;641;48.492;9.184;2023-05-07T01:00:49;14.30;99.90
1297;DHT22;641;48.492;9.184;2023-05-07T01:03:15;14.20;99.90
1297;DHT22;641;48.492;9.184;2023-05-07T01:05:42;14.00;99.90
1297;DHT22;641;48.492;9.184;2023-05-07T01:08:08;14.20;99.90
1297;DHT22;641;48.492;9.184;2023-05-07T01:10:34;14.50;99.90
1297;DHT22;641;48.492;9.184;2023-05-07T01:13:00;14.90;99.90
1297;DHT22;641;48.492;9.184;2023-05-07T01:15:26;14.60;99.90
1297;DHT22;641;48.492;9.184;2023-05-07T01:17:52;14.50;99.90
1297;DHT22;641;48.492;9.184;2023-05-07T01:20:18;14.60;99.90
1297;DHT22;641;48.492;9.184;2023-05-07T01:22:44;14.60;99.90
1297;DHT22;641;48.492;9.184;2023-05-07T01:25:10;14.30;99.90
1297;DHT22;641;48.492;9.184;2023-05-07T01:27:36;13.90;99.90
1297;DHT22;641;48.492;9.184;2023-05-07T01:30:04;14.10;99.90
1297;DHT22;641;48.492;9.184;2023-05-07T01:32:38;13.80;99.90
1297;DHT22;641;48.492;9.184;2023-05-07T01:35:09;13.60;99.90
1297;DHT22;641;48.492;9.184;2023-05-07T01:37:35;13.60;99.90
1297;DHT22;641;48.492;9.184;2023-05-07T01:40:02;13.40;99.90
1297;DHT22;641;48.492;9.184;2023-05-07T01:42:29;13.70;99.90
1297;DHT22;641;48.492;9.184;2023-05-07T01:44:55;13.90;99.90
1297;DHT22;641;48.492;9.184;2023-05-07T01:47:21;13.80;99.90
1297;DHT22;641;48.492;9.184;2023-05-07T01:49:47;13.60;99.90
1297;DHT22;641;48.492;9.184;2023-05-07T01:52:12;13.30;99.90
1297;DHT22;641;48.492;9.184;2023-05-07T02:38:35;13.50;99.90
1297;DHT22;641;48.492;9.184;2023-05-07T02:41:01;13.50;99.90
1297;DHT22;641;48.492;9.184;2023-05-07T02:43:26;13.20;99.90
1297;DHT22;641;48.492;9.184;2023-05-07T02:46:05;13.30;99.90
1297;DHT22;641;48.492;9.184;2023-05-07T02:48:31;12.90;99.90
1297;DHT22;641;48.492;9.184;2023-05-07T02:50:58;12.90;99.90
1297;DHT22;641;48.492;9.184;2023-05-07T02:53:25;13.00;99.90
1297;DHT22;641;48.492;9.184;2023-05-07T02:55:53;13.10;99.90
1297;DHT22;641;48.492;9.184;2023-05-07T02:58:18;13.20;99.90
1297;DHT22;641;48.492;9.184;2023-05-07T03:00:44;13.10;99.90
1297;DHT22;641;48.492;9.184;2023-05-07T03:03:10;12.80;99.90
1297;DHT22;641;48.492;9.184;2023-05-07T03:05:36;12.70;99.90
1297;DHT22;641;48.492;9.184;2023-05-07T03:08:02;13.00;99.90
1297;DHT22;641;48.492;9.184;2023-05-07T03:10:29;12.90;99.90
1297;DHT22;641;48.492;9.184;2023-05-07T03:12:55;12.80;99.90
1297;DHT22;641;48.492;9.184;2023-05-07T03:15:21;12.90;99.90
1297;DHT22;641;48.492;9.184;2023-05-07T03:17:47;13.00;99.90
1297;DHT22;641;48.492;9.184;2023-05-07T03:20:13;12.90;99.90
1297;DHT22;641;48.492;9.184;2023-05-07T03:22:39;12.90;99.90
1297;DHT22;641;48.492;9.184;2023-05-07T03:25:05;12.90;99.90
1297;DHT22;641;48.492;9.184;2023-05-07T03:27:30;12.80;99.90
1297;DHT22;641;48.492;9.184;2023-05-07T03:29:56;12.90;99.90
1297;DHT22;641;48.492;9.184;2023-05-07T03:32:22;12.80;99.90
1297;DHT22;641;48.492;9.184;2023-05-07T03:34:47;12.90;99.90
1297;DHT22;641;48.492;9.184;2023-05-07T03:37:13;12.90;99.90
1297;DHT22;641;48.492;9.184;2023-05-07T03:39:38;12.90;99.90
1297;DHT22;641;48.492;9.184;2023-05-07T03:42:04;12.70;99.90
1297;DHT22;641;48.492;9.184;2023-05-07T03:44:30;12.90;99.90
1297;DHT22;641;48.492;9.184;2023-05-07T03:46:55;12.80;99.90
1297;DHT22;641;48.492;9.184;2023-05-07T03:49:21;12.70;99.90
1297;DHT22;641;48.492;9.184;2023-05-07T03:51:47;12.60;99.90
1297;DHT22;641;48.492;9.184;2023-05-07T03:54:13;12.60;99.90
1297;DHT22;641;48.492;9.184;2023-05-07T03:56:39;12.70;99.90
1297;DHT22;641;48.492;9.184;2023-05-07T03:59:04;12.60;99.90
1297;DHT22;641;48.492;9.184;2023-05-07T04:01:30;12.80;99.90
1297;DHT22;641;48.492;9.184;2023-05-07T04:03:57;12.80;99.90
1297;DHT22;641;48.492;9.184;2023-05-07T04:06:23;12.70;99.90
1297;DHT22;641;48.492;9.184;2023-05-07T04:08:49;12.70;99.90
1297;DHT22;641;48.492;9.184;2023-05-07T04:11:15;12.60;99.90
1297;DHT22;641;48.492;9.184;2023-05-07T04:13:41;12.80;99.90
1297;DHT22;641;48.492;9.184;2023-05-07T04:16:06;12.60;99.90
1297;DHT22;641;48.492;9.184;2023-05-07T04:18:32;12.60;99.90
1297;DHT22;641;48.492;9.184;2023-05-07T04:20:58;12.60;99.90
1297;DHT22;641;48.492;9.184;2023-05-07T04:23:24;12.60;99.90
1297;DHT22;641;48.492;9.184;2023-05-07T04:25:50;12.70;99.90
1297;DHT22;641;48.492;9.184;2023-05-07T04:28:16;12.60;99.90
1297;DHT22;641;48.492;9.184;2023-05-07T04:30:42;12.70;99.90
1297;DHT22;641;48.492;9.184;2023-05-07T04:33:07;12.70;99.90
1297;DHT22;641;48.492;9.184;2023-05-07T04:35:33;12.70;99.90
1297;DHT22;641;48.492;9.184;2023-05-07T04:37:59;12.80;99.90
1297;DHT22;641;48.492;9.184;2023-05-07T04:40:25;12.80;99.90
1297;DHT22;641;48.492;9.184;2023-05-07T04:42:51;12.80;99.90
1297;DHT22;641;48.492;9.184;2023-05-07T04:45:16;12.80;99.90
1297;DHT22;641;48.492;9.184;2023-05-07T04:47:42;12.60;99.90
1297;DHT22;641;48.492;9.184;2023-05-07T04:50:08;12.30;99.90
1297;DHT22;641;48.492;9.184;2023-05-07T04:52:35;12.30;99.90
1297;DHT22;641;48.492;9.184;2023-05-07T04:55:01;12.30;99.90
1297;DHT22;641;48.492;9.184;2023-05-07T04:57:27;12.60;99.90
1297;DHT22;641;48.492;9.184;2023-05-07T04:59:53;12.50;99.90
1297;DHT22;641;48.492;9.184;2023-05-07T05:02:19;12.80;99.90
1297;DHT22;641;48.492;9.184;2023-05-07T05:04:45;12.70;99.90
1297;DHT22;641;48.492;9.184;2023-05-07T05:07:11;12.50;99.90
1297;DHT22;641;48.492;9.184;2023-05-07T05:09:37;12.20;99.90
1297;DHT22;641;48.492;9.184;2023-05-07T05:12:03;12.30;99.90
1297;DHT22;641;48.492;9.184;2023-05-07T05:14:29;12.80;99.90
1297;DHT22;641;48.492;9.184;2023-05-07T05:16:55;12.90;99.90
1297;DHT22;641;48.492;9.184;2023-05-07T05:19:21;12.90;99.90
1297;DHT22;641;48.492;9.184;2023-05-07T05:21:46;12.70;99.90
1297;DHT22;641;48.492;9.184;2023-05-07T05:24:12;12.40;99.90
1297;DHT22;641;48.492;9.184;2023-05-07T05:26:38;12.70;99.90
1297;DHT22;641;48.492;9.184;2023-05-07T05:29:04;12.90;99.90
1297;DHT22;641;48.492;9.184;2023-05-07T05:31:29;13.00;99.90
1297;DHT22;641;48.492;9.184;2023-05-07T05:33:55;13.00;99.90
1297;DHT22;641;48.492;9.184;2023-05-07T05:36:21;13.10;99.90
1297;DHT22;641;48.492;9.184;2023-05-07T05:38:47;13.30;99.90
1297;DHT22;641;48.492;9.184;2023-05-07T05:41:13;13.50;99.90
1297;DHT22;641;48.492;9.184;2023-05-07T05:43:39;13.80;99.90
1297;DHT22;641;48.492;9.184;2023-05-07T05:46:05;13.70;99.90
1297;DHT22;641;48.492;9.184;2023-05-07T05:48:31;14.00;99.90
1297;DHT22;641;48.492;9.184;2023-05-07T05:50:56;13.90;99.90
1297;DHT22;641;48.492;9.184;2023-05-07T05:53:22;13.90;99.90
1297;DHT22;641;48.492;9.184;2023-05-07T05:55:48;13.90;99.90
1297;DHT22;641;48.492;9.184;2023-05-07T05:58:14;14.00;99.90
1297;DHT22;641;48.492;9.184;2023-05-07T06:00:40;14.10;99.90
1297;DHT22;641;48.492;9.184;2023-05-07T06:03:06;14.30;99.90
1297;DHT22;641;48.492;9.184;2023-05-07T06:05:31;14.20;99.90
1297;DHT22;641;48.492;9.184;2023-05-07T06:07:57;14.30;99.90
1297;DHT22;641;48.492;9.184;2023-05-07T06:10:22;14.40;99.90
1297;DHT22;641;48.492;9.184;2023-05-07T06:12:49;14.20;99.90
1297;DHT22;641;48.492;9.184;2023-05-07T06:15:15;13.90;99.90
1297;DHT22;641;48.492;9.184;2023-05-07T06:17:40;14.10;99.90
1297;DHT22;641;48.492;9.184;2023-05-07T06:20:06;14.50;99.90
1297;DHT22;641;48.492;9.184;2023-05-07T06:22:33;14.50;99.90
1297;DHT22;641;48.492;9.184;2023-05-07T06:24:59;14.60;99.90
1297;DHT22;641;48.492;9.184;2023-05-07T06:27:24;14.50;99.90
1297;DHT22;641;48.492;9.184;2023-05-07T06:29:50;14.90;99.90
1297;DHT22;641;48.492;9.184;2023-05-07T06:32:15;15.40;99.90
1297;DHT22;641;48.492;9.184;2023-05-07T06:34:42;15.70;99.90
1297;DHT22;641;48.492;9.184;2023-05-07T06:37:08;16.30;99.90
1297;DHT22;641;48.492;9.184;2023-05-07T06:39:33;16.40;99.90
1297;DHT22;641;48.492;9.184;2023-05-07T06:42:00;16.50;99.90
1297;DHT22;641;48.492;9.184;2023-05-07T06:44:25;15.90;99.90
1297;DHT22;641;48.492;9.184;2023-05-07T06:46:51;16.10;99.90
1297;DHT22;641;48.492;9.184;2023-05-07T06:49:17;16.20;99.90
1297;DHT22;641;48.492;9.184;2023-05-07T06:51:42;16.10;99.90
1297;DHT22;641;48.492;9.184;2023-05-07T06:54:08;15.90;99.90
1297;DHT22;641;48.492;9.184;2023-05-07T06:56:34;15.70;99.90
1297;DHT22;641;48.492;9.184;2023-05-07T06:59:00;15.40;99.90
1297;DHT22;641;48.492;9.184;2023-05-07T07:01:26;15.70;99.90
1297;DHT22;641;48.492;9.184;2023-05-07T07:03:52;16.00;99.90
1297;DHT22;641;48.492;9.184;2023-05-07T07:06:17;16.30;99.90
1297;DHT22;641;48.492;9.184;2023-05-07T07:08:43;16.50;99.90
1297;DHT22;641;48.492;9.184;2023-05-07T07:11:10;16.80;99.90
1297;DHT22;641;48.492;9.184;2023-05-07T07:13:36;17.00;99.90
1297;DHT22;641;48.492;9.184;2023-05-07T07:16:02;17.50;99.90
1297;DHT22;641;48.492;9.184;2023-05-07T07:18:28;17.60;99.90
1297;DHT22;641;48.492;9.184;2023-05-07T07:20:53;17.50;99.90
1297;DHT22;641;48.492;9.184;2023-05-07T07:23:19;16.50;99.90
1297;DHT22;641;48.492;9.184;2023-05-07T07:25:45;16.20;99.90
1297;DHT22;641;48.492;9.184;2023-05-07T07:28:11;16.50;99.90
1297;DHT22;641;48.492;9.184;2023-05-07T07:30:37;16.90;99.90
1297;DHT22;641;48.492;9.184;2023-05-07T07:33:02;17.40;99.90
1297;DHT22;641;48.492;9.184;2023-05-07T07:35:32;17.40;99.90
1297;DHT22;641;48.492;9.184;2023-05-07T07:37:58;17.80;99.90
1297;DHT22;641;48.492;9.184;2023-05-07T07:40:24;18.50;99.90
1297;DHT22;641;48.492;9.184;2023-05-07T07:42:53;18.30;99.90
1297;DHT22;641;48.492;9.184;2023-05-07T07:45:19;18.50;99.90
1297;DHT22;641;48.492;9.184;2023-05-07T07:47:45;18.20;99.90
1297;DHT22;641;48.492;9.184;2023-05-07T07:50:10;18.70;99.90
1297;DHT22;641;48.492;9.184;2023-05-07T07:52:36;18.60;99.90
1297;DHT22;641;48.492;9.184;2023-05-07T07:55:02;18.60;99.90
1297;DHT22;641;48.492;9.184;2023-05-07T07:57:28;18.30;99.90
1297;DHT22;641;48.492;9.184;2023-05-07T07:59:54;18.10;99.90
1297;DHT22;641;48.492;9.184;2023-05-07T08:02:19;18.30;99.90
1297;DHT22;641;48.492;9.184;2023-05-07T08:04:45;18.10;99.90
1297;DHT22;641;48.492;9.184;2023-05-07T08:07:11;18.60;99.90
1297;DHT22;641;48.492;9.184;2023-05-07T08:09:40;18.90;99.90
1297;DHT22;641;48.492;9.184;2023-05-07T08:12:06;19.40;99.90
1297;DHT22;641;48.492;9.184;2023-05-07T08:14:33;19.50;99.90
1297;DHT22;641;48.492;9.184;2023-05-07T08:16:58;19.50;99.90
1297;DHT22;641;48.492;9.184;2023-05-07T08:19:24;19.30;99.90
1297;DHT22;641;48.492;9.184;2023-05-07T08:21:50;19.20;99.90
1297;DHT22;641;48.492;9.184;2023-05-07T08:24:16;19.20;99.90
1297;DHT22;641;48.492;9.184;2023-05-07T08:26:41;19.30;99.90
1297;DHT22;641;48.492;9.184;2023-05-07T08:29:07;19.30;99.90
1297;DHT22;641;48.492;9.184;2023-05-07T08:31:33;19.30;99.90
1297;DHT22;641;48.492;9.184;2023-05-07T08:33:59;19.30;99.90
1297;DHT22;641;48.492;9.184;2023-05-07T08:36:25;19.00;99.90
1297;DHT22;641;48.492;9.184;2023-05-07T08:38:51;19.10;99.90
1297;DHT22;641;48.492;9.184;2023-05-07T08:41:17;19.10;99.90
1297;DHT22;641;48.492;9.184;2023-05-07T08:43:47;19.10;99.90
1297;DHT22;641;48.492;9.184;2023-05-07T08:46:20;19.10;99.90
1297;DHT22;641;48.492;9.184;2023-05-07T08:48:48;19.50;99.90
1297;DHT22;641;48.492;9.184;2023-05-07T08:51:17;19.50;99.90
1297;DHT22;641;48.492;9.184;2023-05-07T08:53:43;19.40;99.90
1297;DHT22;641;48.492;9.184;2023-05-07T08:56:09;19.30;99.90
1297;DHT22;641;48.492;9.184;2023-05-07T08:58:35;18.80;99.90
1297;DHT22;641;48.492;9.184;2023-05-07T09:01:08;19.20;99.90
1297;DHT22;641;48.492;9.184;2023-05-07T09:03:35;19.20;99.90
1297;DHT22;641;48.492;9.184;2023-05-07T09:06:01;19.00;99.90
1297;DHT22;641;48.492;9.184;2023-05-07T09:08:27;19.10;99.90
1297;DHT22;641;48.492;9.184;2023-05-07T09:10:53;18.70;99.90
1297;DHT22;641;48.492;9.184;2023-05-07T09:13:20;18.70;99.90
1297;DHT22;641;48.492;9.184;2023-05-07T09:15:45;19.20;99.90
1297;DHT22;641;48.492;9.184;2023-05-07T09:18:12;19.20;99.90
1297;DHT22;641;48.492;9.184;2023-05-07T09:20:38;19.40;99.90
1297;DHT22;641;48.492;9.184;2023-05-07T09:23:04;19.90;99.90
1297;DHT22;641;48.492;9.184;2023-05-07T09:25:31;19.80;99.90
1297;DHT22;641;48.492;9.184;2023-05-07T09:27:57;20.20;99.90
1297;DHT22;641;48.492;9.184;2023-05-07T09:30:26;20.40;99.90
1297;DHT22;641;48.492;9.184;2023-05-07T09:32:52;20.00;99.90
1297;DHT22;641;48.492;9.184;2023-05-07T09:35:18;19.90;99.90
1297;DHT22;641;48.492;9.184;2023-05-07T09:37:46;20.60;99.90
1297;DHT22;641;48.492;9.184;2023-05-07T09:40:42;20.90;99.90
1297;DHT22;641;48.492;9.184;2023-05-07T09:43:13;21.30;99.90
1297;DHT22;641;48.492;9.184;2023-05-07T09:45:39;21.50;99.90
1297;DHT22;641;48.492;9.184;2023-05-07T09:48:06;21.30;99.90
1297;DHT22;641;48.492;9.184;2023-05-07T09:50:36;21.00;99.90
1297;DHT22;641;48.492;9.184;2023-05-07T09:53:05;21.30;99.90
1297;DHT22;641;48.492;9.184;2023-05-07T09:55:31;21.00;99.90
1297;DHT22;641;48.492;9.184;2023-05-07T09:57:58;21.00;99.90
1297;DHT22;641;48.492;9.184;2023-05-07T10:00:25;21.20;99.90
1297;DHT22;641;48.492;9.184;2023-05-07T10:02:56;22.00;99.90
1297;DHT22;641;48.492;9.184;2023-05-07T10:05:22;21.60;99.90
1297;DHT22;641;48.492;9.184;2023-05-07T10:07:49;21.60;99.90
1297;DHT22;641;48.492;9.184;2023-05-07T10:10:16;21.50;99.90
1297;DHT22;641;48.492;9.184;2023-05-07T10:12:42;21.60;99.90
1297;DHT22;641;48.492;9.184;2023-05-07T10:15:09;22.00;99.90
1297;DHT22;641;48.492;9.184;2023-05-07T10:17:39;22.50;99.90
1297;DHT22;641;48.492;9.184;2023-05-07T10:20:06;23.00;99.90
1297;DHT22;641;48.492;9.184;2023-05-07T10:22:43;23.10;99.90
1297;DHT22;641;48.492;9.184;2023-05-07T10:25:25;23.40;99.90
1297;DHT22;641;48.492;9.184;2023-05-07T10:27:51;23.30;99.90
1297;DHT22;641;48.492;9.184;2023-05-07T10:30:44;22.90;99.90
1297;DHT22;641;48.492;9.184;2023-05-07T10:33:15;23.20;99.90
1297;DHT22;641;48.492;9.184;2023-05-07T10:35:43;23.70;99.90
1297;DHT22;641;48.492;9.184;2023-05-07T10:38:09;23.80;99.90
1297;DHT22;641;48.492;9.184;2023-05-07T10:40:35;24.10;99.90
1297;DHT22;641;48.492;9.184;2023-05-07T10:43:03;24.30;98.20
1297;DHT22;641;48.492;9.184;2023-05-07T10:45:32;24.10;98.50
1297;DHT22;641;48.492;9.184;2023-05-07T10:48:16;24.60;98.30
1297;DHT22;641;48.492;9.184;2023-05-07T10:50:45;24.30;98.60
1297;DHT22;641;48.492;9.184;2023-05-07T10:55:48;24.20;99.90
1297;DHT22;641;48.492;9.184;2023-05-07T11:00:46;23.80;99.90
1297;DHT22;641;48.492;9.184;2023-05-07T11:03:12;23.60;99.90
1297;DHT22;641;48.492;9.184;2023-05-07T11:05:40;23.80;99.80
1297;DHT22;641;48.492;9.184;2023-05-07T11:08:06;23.60;99.90
1297;DHT22;641;48.492;9.184;2023-05-07T11:13:16;23.70;99.90
1297;DHT22;641;48.492;9.184;2023-05-07T11:15:44;23.70;99.90
1297;DHT22;641;48.492;9.184;2023-05-07T11:18:12;23.50;99.90
1297;DHT22;641;48.492;9.184;2023-05-07T11:20:58;23.70;99.90
1297;DHT22;641;48.492;9.184;2023-05-07T11:26:09;23.10;99.90
1297;DHT22;641;48.492;9.184;2023-05-07T11:28:40;23.00;99.90
1297;DHT22;641;48.492;9.184;2023-05-07T11:31:08;22.80;99.90
1297;DHT22;641;48.492;9.184;2023-05-07T11:33:34;23.00;99.90
1297;DHT22;641;48.492;9.184;2023-05-07T11:36:02;21.60;99.90
1297;DHT22;641;48.492;9.184;2023-05-07T11:38:29;21.60;99.90
1297;DHT22;641;48.492;9.184;2023-05-07T11:40:58;21.50;99.90
1297;DHT22;641;48.492;9.184;2023-05-07T11:43:28;21.70;99.90
1297;DHT22;641;48.492;9.184;2023-05-07T11:45:53;21.50;99.90
1297;DHT22;641;48.492;9.184;2023-05-07T11:48:21;21.50;99.90
1297;DHT22;641;48.492;9.184;2023-05-07T11:51:03;21.60;99.90
1297;DHT22;641;48.492;9.184;2023-05-07T11:53:38;21.50;99.90
1297;DHT22;641;48.492;9.184;2023-05-07T11:56:08;22.50;99.90
1297;DHT22;641;48.492;9.184;2023-05-07T11:58:34;21.40;99.90
1297;DHT22;641;48.492;9.184;2023-05-07T12:00:59;21.30;99.90
1297;DHT22;641;48.492;9.184;2023-05-07T12:03:25;22.00;99.90
1297;DHT22;641;48.492;9.184;2023-05-07T12:05:55;21.40;99.90
1297;DHT22;641;48.492;9.184;2023-05-07T12:08:21;21.30;99.90
1297;DHT22;641;48.492;9.184;2023-05-07T12:10:49;22.70;99.90
1297;DHT22;641;48.492;9.184;2023-05-07T12:13:19;21.70;99.90
1297;DHT22;641;48.492;9.184;2023-05-07T12:15:45;22.00;99.90
1297;DHT22;641;48.492;9.184;2023-05-07T12:18:15;21.40;99.90
1297;DHT22;641;48.492;9.184;2023-05-07T12:20:40;21.30;99.90
1297;DHT22;641;48.492;9.184;2023-05-07T12:23:06;21.30;99.90
1297;DHT22;641;48.492;9.184;2023-05-07T12:25:37;21.60;99.90
1297;DHT22;641;48.492;9.184;2023-05-07T12:28:03;21.50;99.90
1297;DHT22;641;48.492;9.184;2023-05-07T12:30:37;21.40;99.90
1297;DHT22;641;48.492;9.184;2023-05-07T12:33:02;21.10;99.90
1297;DHT22;641;48.492;9.184;2023-05-07T12:35:32;21.20;99.90
1297;DHT22;641;48.492;9.184;2023-05-07T12:38:01;21.20;99.90
1297;DHT22;641;48.492;9.184;2023-05-07T12:40:37;22.00;99.90
1297;DHT22;641;48.492;9.184;2023-05-07T12:43:03;22.00;99.90
1297;DHT22;641;48.492;9.184;2023-05-07T12:45:29;21.10;99.90
1297;DHT22;641;48.492;9.184;2023-05-07T12:47:55;20.80;99.90
1297;DHT22;641;48.492;9.184;2023-05-07T12:50:20;21.50;99.90
1297;DHT22;641;48.492;9.184;2023-05-07T12:52:48;20.40;99.90
1297;DHT22;641;48.492;9.184;2023-05-07T12:55:16;20.40;99.90
1297;DHT22;641;48.492;9.184;2023-05-07T12:57:45;20.60;99.90
1297;DHT22;641;48.492;9.184;2023-05-07T13:00:13;20.10;99.90
1297;DHT22;641;48.492;9.184;2023-05-07T13:02:41;19.60;99.90
1297;DHT22;641;48.492;9.184;2023-05-07T13:05:07;19.50;99.90
1297;DHT22;641;48.492;9.184;2023-05-07T13:07:34;19.30;99.90
1297;DHT22;641;48.492;9.184;2023-05-07T13:09:59;20.60;99.90
1297;DHT22;641;48.492;9.184;2023-05-07T13:12:25;18.90;99.90
1297;DHT22;641;48.492;9.184;2023-05-07T13:14:51;19.00;99.90
1297;DHT22;641;48.492;9.184;2023-05-07T13:17:16;18.30;99.90
1297;DHT22;641;48.492;9.184;2023-05-07T13:19:42;17.90;99.90
1297;DHT22;641;48.492;9.184;2023-05-07T13:22:07;17.60;99.90
1297;DHT22;641;48.492;9.184;2023-05-07T13:24:33;17.80;99.90
1297;DHT22;641;48.492;9.184;2023-05-07T13:26:58;17.50;99.90
1297;DHT22;641;48.492;9.184;2023-05-07T13:29:24;17.10;99.90
1297;DHT22;641;48.492;9.184;2023-05-07T13:31:54;17.10;99.90
1297;DHT22;641;48.492;9.184;2023-05-07T13:34:20;16.40;99.90
1297;DHT22;641;48.492;9.184;2023-05-07T13:36:45;16.10;99.90
1297;DHT22;641;48.492;9.184;2023-05-07T13:39:11;15.90;99.90
1297;DHT22;641;48.492;9.184;2023-05-07T13:41:36;16.20;99.90
1297;DHT22;641;48.492;9.184;2023-05-07T13:44:02;16.80;99.90
1297;DHT22;641;48.492;9.184;2023-05-07T13:46:27;17.10;99.90
1297;DHT22;641;48.492;9.184;2023-05-07T13:48:55;17.60;99.90
1297;DHT22;641;48.492;9.184;2023-05-07T13:51:20;17.90;99.90
1297;DHT22;641;48.492;9.184;2023-05-07T13:53:46;17.90;99.90
1297;DHT22;641;48.492;9.184;2023-05-07T13:56:12;17.90;99.90
1297;DHT22;641;48.492;9.184;2023-05-07T13:58:38;17.70;99.90
1297;DHT22;641;48.492;9.184;2023-05-07T14:01:03;17.70;99.90
1297;DHT22;641;48.492;9.184;2023-05-07T14:03:29;17.60;99.90
1297;DHT22;641;48.492;9.184;2023-05-07T14:05:57;17.80;99.90
1297;DHT22;641;48.492;9.184;2023-05-07T14:08:23;17.90;99.90
1297;DHT22;641;48.492;9.184;2023-05-07T14:10:48;17.90;99.90
1297;DHT22;641;48.492;9.184;2023-05-07T14:13:14;18.00;99.90
1297;DHT22;641;48.492;9.184;2023-05-07T14:15:40;18.00;99.90
1297;DHT22;641;48.492;9.184;2023-05-07T14:18:05;18.10;99.90
1297;DHT22;641;48.492;9.184;2023-05-07T14:20:31;18.30;99.90
1297;DHT22;641;48.492;9.184;2023-05-07T14:22:56;18.30;99.90
1297;DHT22;641;48.492;9.184;2023-05-07T14:25:22;18.50;99.90
1297;DHT22;641;48.492;9.184;2023-05-07T14:27:48;18.70;99.90
1297;DHT22;641;48.492;9.184;2023-05-07T14:30:13;18.90;99.90
1297;DHT22;641;48.492;9.184;2023-05-07T14:32:39;19.00;99.90
1297;DHT22;641;48.492;9.184;2023-05-07T14:35:04;19.20;99.90
1297;DHT22;641;48.492;9.184;2023-05-07T14:37:30;19.00;99.90
1297;DHT22;641;48.492;9.184;2023-05-07T14:39:56;19.00;99.90
1297;DHT22;641;48.492;9.184;2023-05-07T14:42:21;19.30;99.90
1297;DHT22;641;48.492;9.184;2023-05-07T14:44:47;19.10;99.90
1297;DHT22;641;48.492;9.184;2023-05-07T14:47:13;19.30;99.90
1297;DHT22;641;48.492;9.184;2023-05-07T14:49:39;19.70;99.90
1297;DHT22;641;48.492;9.184;2023-05-07T14:52:06;19.70;99.90
1297;DHT22;641;48.492;9.184;2023-05-07T14:54:34;19.50;99.90
1297;DHT22;641;48.492;9.184;2023-05-07T14:57:01;19.60;99.90
1297;DHT22;641;48.492;9.184;2023-05-07T14:59:27;19.80;99.90
1297;DHT22;641;48.492;9.184;2023-05-07T15:01:52;19.70;99.90
1297;DHT22;641;48.492;9.184;2023-05-07T15:04:19;20.00;99.90
1297;DHT22;641;48.492;9.184;2023-05-07T15:06:44;20.50;99.90
1297;DHT22;641;48.492;9.184;2023-05-07T15:09:11;20.60;99.90
1297;DHT22;641;48.492;9.184;2023-05-07T15:11:36;20.50;99.90
1297;DHT22;641;48.492;9.184;2023-05-07T15:14:02;20.80;99.90
1297;DHT22;641;48.492;9.184;2023-05-07T15:16:28;21.20;99.90
1297;DHT22;641;48.492;9.184;2023-05-07T15:18:53;20.90;99.90
1297;DHT22;641;48.492;9.184;2023-05-07T15:21:19;21.30;99.90
1297;DHT22;641;48.492;9.184;2023-05-07T15:23:45;21.50;99.90
1297;DHT22;641;48.492;9.184;2023-05-07T15:26:10;21.60;99.90
1297;DHT22;641;48.492;9.184;2023-05-07T15:28:36;21.70;99.90
1297;DHT22;641;48.492;9.184;2023-05-07T15:31:03;21.20;99.90
1297;DHT22;641;48.492;9.184;2023-05-07T15:33:28;21.00;99.90
1297;DHT22;641;48.492;9.184;2023-05-07T15:38:24;20.60;99.90
1297;DHT22;641;48.492;9.184;2023-05-07T15:40:50;21.40;99.90
1297;DHT22;641;48.492;9.184;2023-05-07T15:43:15;21.50;99.90
1297;DHT22;641;48.492;9.184;2023-05-07T15:45:42;21.70;99.90
1297;DHT22;641;48.492;9.184;2023-05-07T15:48:09;21.80;99.90
1297;DHT22;641;48.492;9.184;2023-05-07T15:50:36;21.90;99.90
1297;DHT22;641;48.492;9.184;2023-05-07T15:53:02;21.40;99.90
1297;DHT22;641;48.492;9.184;2023-05-07T15:57:54;20.90;99.90
1297;DHT22;641;48.492;9.184;2023-05-07T16:00:21;21.40;99.90
1297;DHT22;641;48.492;9.184;2023-05-07T16:02:47;20.80;99.90
1297;DHT22;641;48.492;9.184;2023-05-07T16:05:13;21.20;99.90
1297;DHT22;641;48.492;9.184;2023-05-07T16:07:39;20.80;99.90
1297;DHT22;641;48.492;9.184;2023-05-07T16:10:06;20.80;99.90
1297;DHT22;641;48.492;9.184;2023-05-07T16:12:32;20.10;99.90
1297;DHT22;641;48.492;9.184;2023-05-07T16:14:58;20.20;99.90
1297;DHT22;641;48.492;9.184;2023-05-07T16:17:23;20.10;99.90
1297;DHT22;641;48.492;9.184;2023-05-07T16:19:49;20.60;99.90
1297;DHT22;641;48.492;9.184;2023-05-07T16:22:15;20.40;99.90
1297;DHT22;641;48.492;9.184;2023-05-07T16:24:41;20.40;99.90
1297;DHT22;641;48.492;9.184;2023-05-07T16:27:07;20.60;99.90
1297;DHT22;641;48.492;9.184;2023-05-07T16:29:32;21.10;99.90
1297;DHT22;641;48.492;9.184;2023-05-07T16:31:58;20.50;99.90
1297;DHT22;641;48.492;9.184;2023-05-07T16:34:23;20.50;99.90
1297;DHT22;641;48.492;9.184;2023-05-07T16:36:49;20.40;99.90
1297;DHT22;641;48.492;9.184;2023-05-07T16:39:15;20.60;99.90
1297;DHT22;641;48.492;9.184;2023-05-07T16:41:41;20.30;99.90
1297;DHT22;641;48.492;9.184;2023-05-07T16:44:08;20.40;99.90
1297;DHT22;641;48.492;9.184;2023-05-07T16:46:34;20.10;99.90
1297;DHT22;641;48.492;9.184;2023-05-07T16:49:00;20.10;99.90
1297;DHT22;641;48.492;9.184;2023-05-07T16:51:25;19.80;99.90
1297;DHT22;641;48.492;9.184;2023-05-07T16:53:52;19.70;99.90
1297;DHT22;641;48.492;9.184;2023-05-07T16:56:18;19.70;99.90
1297;DHT22;641;48.492;9.184;2023-05-07T16:58:44;19.60;99.90
1297;DHT22;641;48.492;9.184;2023-05-07T17:01:09;19.50;99.90
1297;DHT22;641;48.492;9.184;2023-05-07T17:03:39;19.30;99.90
1297;DHT22;641;48.492;9.184;2023-05-07T17:06:05;19.40;99.90
1297;DHT22;641;48.492;9.184;2023-05-07T17:08:37;19.40;99.90
1297;DHT22;641;48.492;9.184;2023-05-07T17:11:03;19.10;99.90
1297;DHT22;641;48.492;9.184;2023-05-07T17:13:28;19.20;99.90